createdAt,value
2019-02-27T00:00:16.822Z,64.20
2019-02-27T00:01:17.537Z,64.20
2019-02-27T00:02:16.826Z,63.57
2019-02-27T00:03:16.788Z,63.47
2019-02-27T00:04:16.777Z,64.09
2019-02-27T00:05:16.767Z,63.57
2019-02-27T00:06:16.757Z,63.57
2019-02-27T00:07:20.809Z,63.37
2019-02-27T00:08:16.744Z,63.37
2019-02-27T00:09:16.729Z,63.89
2019-02-27T00:10:16.714Z,63.81
2019-02-27T00:11:16.703Z,64.33
2019-02-27T00:12:16.996Z,64.75
2019-02-27T00:13:16.684Z,64.85
2019-02-27T00:14:16.688Z,64.85
2019-02-27T00:15:16.666Z,64.87
2019-02-27T00:16:16.651Z,64.95
2019-02-27T00:17:18.018Z,65.08
2019-02-27T00:18:16.631Z,64.56
2019-02-27T00:19:16.619Z,64.23
2019-02-27T00:20:16.617Z,64.25
2019-02-27T00:21:16.601Z,64.23
2019-02-27T00:22:17.647Z,64.54
2019-02-27T00:23:16.577Z,64.75
2019-02-27T00:24:16.565Z,64.02
2019-02-27T00:25:16.553Z,64.25
2019-02-27T00:26:16.558Z,64.56
2019-02-27T00:27:16.534Z,65.32
2019-02-27T00:28:16.522Z,64.87
2019-02-27T00:29:16.513Z,65.60
2019-02-27T00:30:16.507Z,65.32
2019-02-27T00:31:16.490Z,64.56
2019-02-27T00:32:18.490Z,64.67
2019-02-27T00:33:16.469Z,65.29
2019-02-27T00:34:16.461Z,65.42
2019-02-27T00:35:16.456Z,64.98
2019-02-27T00:36:16.437Z,65.22
2019-02-27T00:37:18.815Z,65.42
2019-02-27T00:38:16.425Z,65.42
2019-02-27T00:39:16.407Z,65.42
2019-02-27T00:40:16.396Z,66.15
2019-02-27T00:41:16.383Z,65.81
2019-02-27T00:42:19.579Z,65.01
2019-02-27T00:43:16.360Z,65.22
2019-02-27T00:44:16.361Z,64.80
2019-02-27T00:45:16.338Z,64.80
2019-02-27T00:46:16.329Z,65.32
2019-02-27T00:47:17.060Z,65.32
2019-02-27T00:48:16.310Z,64.90
2019-02-27T00:49:16.296Z,64.70
2019-02-27T00:50:16.294Z,64.80
2019-02-27T00:51:16.274Z,64.80
2019-02-27T00:52:18.229Z,65.32
2019-02-27T00:53:16.251Z,64.56
2019-02-27T00:54:16.242Z,64.67
2019-02-27T00:55:16.231Z,64.77
2019-02-27T00:56:16.229Z,64.59
2019-02-27T00:57:20.620Z,64.90
2019-02-27T00:58:17.197Z,64.90
2019-02-27T00:59:16.191Z,65.42
2019-02-27T01:00:16.176Z,65.73
2019-02-27T01:01:16.176Z,64.80
2019-02-27T01:02:19.970Z,64.80
2019-02-27T01:03:16.145Z,65.32
2019-02-27T01:04:16.138Z,65.14
2019-02-27T01:05:16.142Z,65.22
2019-02-27T01:06:16.112Z,64.80
2019-02-27T01:07:20.250Z,64.90
2019-02-27T01:08:16.103Z,64.94
2019-02-27T01:09:16.082Z,65.11
2019-02-27T01:10:16.070Z,65.11
2019-02-27T01:11:18.421Z,65.14
2019-02-27T01:12:16.053Z,65.11
2019-02-27T01:13:16.054Z,65.63
2019-02-27T01:14:16.044Z,65.22
2019-02-27T01:15:16.019Z,65.14
2019-02-27T01:16:17.266Z,65.45
2019-02-27T01:36:37.277Z,66.42
2019-02-27T01:36:45.449Z,66.84
2019-02-27T01:37:45.434Z,66.74
2019-02-27T01:38:45.425Z,65.90
2019-02-27T01:39:45.435Z,66.00
2019-02-27T01:40:45.401Z,65.17
2019-02-27T01:41:45.407Z,65.14
2019-02-27T01:42:45.389Z,64.97
2019-02-27T01:43:45.371Z,65.48
2019-02-27T01:44:46.682Z,65.90
2019-02-27T01:45:45.349Z,66.00
2019-02-27T01:46:45.341Z,66.74
2019-02-27T01:58:17.765Z,66.97
2019-02-27T01:59:11.260Z,66.87
2019-02-27T02:00:11.235Z,66.45
2019-02-27T02:01:11.225Z,66.97
2019-02-27T02:02:11.213Z,67.18
2019-02-27T02:03:33.308Z,66.97
2019-02-27T02:04:11.194Z,67.18
2019-02-27T02:05:11.195Z,67.08
2019-02-27T02:06:11.187Z,67.18
2019-02-27T02:07:11.164Z,67.49
2019-02-27T02:08:14.020Z,66.77
2019-02-27T02:09:11.169Z,67.70
2019-02-27T02:10:11.131Z,67.29
2019-02-27T02:11:11.174Z,67.29
2019-02-27T02:12:11.110Z,66.77
2019-02-27T02:13:14.825Z,67.80
2019-02-27T02:14:11.088Z,67.80
2019-02-27T02:15:11.094Z,68.74
2019-02-27T02:16:11.068Z,68.74
2019-02-27T02:17:11.090Z,68.98
2019-02-27T02:18:11.913Z,69.29
2019-02-27T02:19:11.049Z,68.46
2019-02-27T02:20:11.027Z,68.77
2019-02-27T02:21:11.019Z,68.74
2019-02-27T02:22:11.006Z,68.32
2019-02-27T02:23:13.972Z,68.77
2019-02-27T02:24:10.989Z,69.09
2019-02-27T02:25:10.990Z,68.77
2019-02-27T02:26:10.964Z,68.91
2019-02-27T02:27:10.962Z,69.84
2019-02-27T02:28:12.091Z,70.05
2019-02-27T02:29:10.954Z,70.40
2019-02-27T02:30:10.941Z,70.40
2019-02-27T02:31:10.924Z,70.40
2019-02-27T02:32:16.851Z,70.29
2019-02-27T02:33:11.890Z,70.29
2019-02-27T02:34:10.881Z,70.81
2019-02-27T02:35:14.823Z,70.29
2019-02-27T02:36:10.859Z,70.50
2019-02-27T02:37:10.851Z,71.02
2019-02-27T02:38:12.577Z,71.12
2019-02-27T02:39:10.826Z,70.92
2019-02-27T02:40:10.822Z,71.23
2019-02-27T02:41:10.817Z,71.12
2019-02-27T02:42:10.795Z,70.92
2019-02-27T02:43:10.806Z,71.16
2019-02-27T02:44:10.775Z,71.26
2019-02-27T02:45:10.762Z,71.33
2019-02-27T02:46:10.751Z,71.47
2019-02-27T02:47:10.769Z,71.58
2019-02-27T02:48:10.737Z,71.54
2019-02-27T02:49:10.721Z,71.58
2019-02-27T02:50:10.708Z,71.58
2019-02-27T02:51:10.717Z,71.65
2019-02-27T02:52:10.687Z,71.33
2019-02-27T02:53:10.691Z,71.33
2019-02-27T02:54:10.665Z,71.23
2019-02-27T02:55:12.497Z,71.23
2019-02-27T02:56:10.644Z,71.26
2019-02-27T02:57:10.635Z,71.37
2019-02-27T02:58:11.330Z,71.58
2019-02-27T02:59:10.627Z,71.68
2019-02-27T03:00:10.599Z,71.78
2019-02-27T03:01:14.181Z,71.68
2019-02-27T03:02:10.579Z,71.47
2019-02-27T03:03:10.567Z,71.78
2019-02-27T03:04:12.801Z,71.23
2019-02-27T03:05:10.557Z,71.68
2019-02-27T03:06:10.538Z,71.58
2019-02-27T03:07:11.066Z,71.68
2019-02-27T03:08:10.514Z,71.68
2019-02-27T03:09:10.508Z,71.47
2019-02-27T03:10:10.493Z,71.44
2019-02-27T03:11:10.492Z,71.37
2019-02-27T03:12:10.471Z,71.47
2019-02-27T03:13:10.466Z,71.89
2019-02-27T03:14:17.247Z,71.37
2019-02-27T03:15:11.436Z,71.78
2019-02-27T03:16:10.429Z,71.78
2019-02-27T03:17:10.511Z,71.99
2019-02-27T03:18:10.405Z,72.51
2019-02-27T03:19:10.402Z,72.13
2019-02-27T03:20:10.384Z,72.65
2019-02-27T03:21:10.375Z,72.86
2019-02-27T03:22:10.365Z,73.41
2019-02-27T03:23:15.311Z,73.21
2019-02-27T03:24:11.342Z,73.10
2019-02-27T03:25:10.330Z,73.00
2019-02-27T03:26:16.496Z,73.21
2019-02-27T03:27:11.311Z,73.27
2019-02-27T03:28:10.299Z,73.17
2019-02-27T03:29:15.561Z,72.75
2019-02-27T03:30:11.285Z,72.34
2019-02-27T03:31:16.204Z,72.44
2019-02-27T03:32:11.261Z,72.30
2019-02-27T03:33:10.255Z,72.41
2019-02-27T03:34:10.246Z,71.99
2019-02-27T03:35:10.271Z,71.89
2019-02-27T03:36:10.225Z,71.68
2019-02-27T03:37:13.183Z,71.37
2019-02-27T03:38:10.191Z,71.68
2019-02-27T03:39:10.181Z,71.26
2019-02-27T03:40:11.764Z,71.47
2019-02-27T03:41:10.170Z,71.16
2019-02-27T03:42:10.148Z,71.05
2019-02-27T03:43:11.363Z,71.16
2019-02-27T03:44:10.128Z,70.84
2019-02-27T03:45:10.120Z,70.53
2019-02-27T03:46:10.112Z,71.26
2019-02-27T03:47:15.611Z,71.05
2019-02-27T03:48:11.083Z,71.16
2019-02-27T03:49:10.073Z,70.53
2019-02-27T03:50:14.660Z,70.12
2019-02-27T03:51:11.050Z,70.53
2019-02-27T03:52:10.040Z,70.32
2019-02-27T03:53:11.079Z,70.53
2019-02-27T03:54:10.019Z,70.53
2019-02-27T03:55:10.008Z,71.23
2019-02-27T03:56:10.124Z,71.05
2019-02-27T03:57:09.987Z,71.26
2019-02-27T03:58:09.980Z,71.05
2019-02-27T03:59:09.976Z,70.95
2019-02-27T04:00:09.954Z,71.05
2019-02-27T04:01:09.944Z,70.95
2019-02-27T04:02:09.932Z,71.16
2019-02-27T04:03:09.924Z,71.16
2019-02-27T04:04:09.937Z,71.26
2019-02-27T04:05:09.910Z,71.47
2019-02-27T04:06:09.890Z,71.05
2019-02-27T04:07:09.881Z,71.58
2019-02-27T04:08:09.869Z,71.47
2019-02-27T04:09:09.870Z,71.05
2019-02-27T04:10:09.849Z,71.26
2019-02-27T04:11:09.846Z,70.95
2019-02-27T04:12:09.825Z,71.16
2019-02-27T04:13:09.815Z,71.05
2019-02-27T04:14:09.803Z,71.05
2019-02-27T04:15:09.792Z,70.84
2019-02-27T04:16:09.782Z,71.37
2019-02-27T04:17:09.788Z,71.58
2019-02-27T04:18:09.761Z,71.58
2019-02-27T04:19:09.750Z,71.05
2019-02-27T04:20:14.626Z,71.12
2019-02-27T04:21:10.727Z,70.92
2019-02-27T04:22:09.746Z,71.05
2019-02-27T04:23:12.494Z,70.95
2019-02-27T04:24:09.696Z,71.05
2019-02-27T04:25:09.686Z,71.05
2019-02-27T04:26:09.679Z,71.05
2019-02-27T04:27:09.665Z,71.26
2019-02-27T04:28:09.662Z,70.92
2019-02-27T04:29:09.658Z,70.95
2019-02-27T04:30:14.679Z,71.47
2019-02-27T04:31:10.626Z,71.05
2019-02-27T04:32:12.435Z,71.16
2019-02-27T04:33:09.601Z,71.58
2019-02-27T04:34:09.591Z,71.47
2019-02-27T04:35:09.595Z,71.47
2019-02-27T04:36:12.461Z,71.37
2019-02-27T04:37:09.558Z,71.58
2019-02-27T04:38:09.547Z,71.16
2019-02-27T04:39:09.537Z,71.37
2019-02-27T04:40:11.236Z,71.58
2019-02-27T04:41:09.526Z,71.37
2019-02-27T04:42:09.504Z,70.95
2019-02-27T04:43:09.494Z,71.50
2019-02-27T04:44:09.485Z,71.61
2019-02-27T04:45:09.876Z,71.92
2019-02-27T04:46:09.463Z,71.71
2019-02-27T04:47:09.462Z,72.02
2019-02-27T04:48:09.443Z,72.13
2019-02-27T04:49:09.437Z,72.13
2019-02-27T04:50:11.284Z,72.13
2019-02-27T04:51:09.409Z,71.71
2019-02-27T04:52:09.400Z,72.13
2019-02-27T04:53:09.398Z,72.65
2019-02-27T04:54:09.376Z,71.92
2019-02-27T04:55:09.365Z,71.78
2019-02-27T04:56:09.356Z,72.09
2019-02-27T04:57:09.344Z,72.65
2019-02-27T04:58:09.675Z,72.02
2019-02-27T04:59:09.336Z,72.34
2019-02-27T05:00:09.318Z,72.65
2019-02-27T05:01:09.308Z,72.34
2019-02-27T05:02:09.291Z,72.34
2019-02-27T05:03:09.279Z,71.92
2019-02-27T05:04:09.271Z,72.62
2019-02-27T05:05:09.332Z,71.89
2019-02-27T05:06:09.247Z,71.89
2019-02-27T05:07:09.237Z,71.58
2019-02-27T05:08:09.227Z,71.78
2019-02-27T05:09:09.218Z,71.26
2019-02-27T05:10:09.209Z,71.37
2019-02-27T05:11:09.212Z,70.95
2019-02-27T05:12:09.183Z,71.37
2019-02-27T05:13:09.172Z,71.68
2019-02-27T05:14:09.163Z,71.37
2019-02-27T05:15:09.150Z,71.16
2019-02-27T05:16:09.139Z,71.78
2019-02-27T05:17:09.140Z,71.68
2019-02-27T05:18:09.118Z,71.37
2019-02-27T05:19:09.113Z,71.47
2019-02-27T05:20:11.837Z,71.26
2019-02-27T05:21:09.089Z,71.26
2019-02-27T05:22:09.077Z,71.89
2019-02-27T05:23:09.076Z,71.47
2019-02-27T05:24:09.055Z,71.05
2019-02-27T05:25:09.045Z,70.95
2019-02-27T05:26:09.034Z,71.47
2019-02-27T05:27:09.023Z,71.37
2019-02-27T05:28:09.013Z,71.58
2019-02-27T05:29:09.013Z,71.47
2019-02-27T05:30:12.035Z,71.16
2019-02-27T05:31:08.983Z,71.99
2019-02-27T05:32:08.972Z,71.47
2019-02-27T05:33:08.963Z,71.78
2019-02-27T05:34:12.467Z,71.99
2019-02-27T05:35:08.952Z,71.81
2019-02-27T05:36:08.937Z,71.68
2019-02-27T05:37:08.919Z,71.99
2019-02-27T05:38:08.908Z,72.20
2019-02-27T05:39:08.896Z,72.34
2019-02-27T05:40:08.890Z,72.75
2019-02-27T05:41:08.888Z,72.86
2019-02-27T05:42:08.864Z,73.49
2019-02-27T05:43:13.160Z,73.07
2019-02-27T05:44:08.843Z,73.21
2019-02-27T05:45:08.833Z,73.07
2019-02-27T05:46:08.822Z,73.17
2019-02-27T05:47:11.091Z,73.31
2019-02-27T05:48:08.800Z,72.65
2019-02-27T05:49:08.789Z,72.44
2019-02-27T05:50:08.796Z,72.24
2019-02-27T05:51:10.673Z,72.44
2019-02-27T05:52:08.757Z,72.47
2019-02-27T05:53:10.545Z,72.58
2019-02-27T05:54:08.736Z,72.78
2019-02-27T05:55:08.725Z,73.76
2019-02-27T05:56:08.715Z,73.55
2019-02-27T05:57:08.704Z,73.27
2019-02-27T05:58:08.693Z,72.96
2019-02-27T05:59:08.693Z,74.07
2019-02-27T06:00:08.678Z,74.73
2019-02-27T06:01:08.661Z,74.52
2019-02-27T06:02:10.783Z,75.15
2019-02-27T06:03:08.641Z,75.15
2019-02-27T06:04:08.632Z,75.15
2019-02-27T06:05:08.630Z,75.15
2019-02-27T06:06:11.501Z,75.26
2019-02-27T06:07:08.599Z,75.05
2019-02-27T06:08:08.590Z,75.05
2019-02-27T06:09:10.368Z,75.12
2019-02-27T06:10:08.651Z,74.28
2019-02-27T06:11:08.568Z,74.07
2019-02-27T06:12:09.847Z,74.18
2019-02-27T06:13:08.538Z,73.34
2019-02-27T06:14:08.527Z,73.45
2019-02-27T06:15:08.516Z,73.34
2019-02-27T06:16:09.272Z,73.72
2019-02-27T06:17:10.092Z,73.34
2019-02-27T06:18:08.483Z,73.72
2019-02-27T06:19:08.504Z,73.52
2019-02-27T06:20:08.582Z,73.21
2019-02-27T06:21:08.453Z,73.24
2019-02-27T06:22:08.440Z,73.24
2019-02-27T06:23:08.443Z,73.24
2019-02-27T06:24:11.666Z,73.52
2019-02-27T06:25:08.417Z,73.21
2019-02-27T06:26:08.403Z,73.62
2019-02-27T06:27:08.388Z,73.00
2019-02-27T06:28:08.378Z,72.89
2019-02-27T06:29:08.385Z,73.00
2019-02-27T06:30:08.363Z,72.89
2019-02-27T06:31:08.347Z,73.00
2019-02-27T06:32:11.872Z,73.34
2019-02-27T06:33:11.650Z,73.24
2019-02-27T06:34:08.317Z,73.31
2019-02-27T06:35:08.315Z,73.45
2019-02-27T06:36:08.599Z,73.86
2019-02-27T06:37:08.284Z,73.97
2019-02-27T06:38:08.272Z,73.13
2019-02-27T06:39:08.811Z,73.24
2019-02-27T06:40:08.251Z,73.97
2019-02-27T06:41:08.251Z,73.55
2019-02-27T06:42:08.294Z,73.90
2019-02-27T06:43:08.219Z,73.86
2019-02-27T06:44:08.208Z,73.45
2019-02-27T06:45:10.258Z,73.76
2019-02-27T06:46:08.187Z,73.66
2019-02-27T06:47:08.187Z,73.97
2019-02-27T06:48:10.244Z,73.97
2019-02-27T06:49:08.157Z,73.45
2019-02-27T06:50:08.144Z,73.41
2019-02-27T06:51:08.135Z,73.00
2019-02-27T06:52:09.282Z,73.10
2019-02-27T06:53:08.125Z,73.00
2019-02-27T06:54:08.102Z,72.68
2019-02-27T06:55:08.091Z,72.47
2019-02-27T06:56:08.090Z,72.34
2019-02-27T06:57:08.421Z,72.13
2019-02-27T06:58:08.058Z,71.68
2019-02-27T06:59:08.057Z,71.71
2019-02-27T07:00:08.038Z,71.37
2019-02-27T07:01:09.710Z,70.95
2019-02-27T07:02:08.016Z,71.05
2019-02-27T07:03:08.006Z,71.05
2019-02-27T07:04:08.279Z,70.61
2019-02-27T07:05:07.998Z,70.50
2019-02-27T07:06:07.972Z,70.81
2019-02-27T07:07:07.961Z,70.71
2019-02-27T07:08:07.951Z,68.91
2019-02-27T07:09:11.341Z,69.12
2019-02-27T07:10:07.930Z,69.43
2019-02-27T07:11:10.950Z,68.35
2019-02-27T07:12:07.909Z,68.98
2019-02-27T07:13:07.900Z,68.77
2019-02-27T07:14:07.887Z,67.91
2019-02-27T07:15:10.314Z,67.18
2019-02-27T07:16:07.866Z,67.18
2019-02-27T07:17:07.866Z,66.53
2019-02-27T07:18:07.846Z,66.84
2019-02-27T07:19:07.834Z,66.81
2019-02-27T07:20:08.847Z,65.14
2019-02-27T07:21:07.814Z,64.59
2019-02-27T07:22:09.310Z,64.46
2019-02-27T07:23:07.806Z,64.49
2019-02-27T07:24:07.783Z,63.73
2019-02-27T07:25:07.771Z,63.71
2019-02-27T07:26:07.760Z,62.46
2019-02-27T07:27:07.748Z,62.23
2019-02-27T07:28:09.165Z,62.12
2019-02-27T07:29:07.739Z,61.47
2019-02-27T07:30:08.117Z,61.57
2019-02-27T07:31:07.706Z,61.44
2019-02-27T07:32:07.695Z,60.27
2019-02-27T07:33:07.683Z,60.79
2019-02-27T07:34:07.673Z,59.75
2019-02-27T07:35:07.675Z,58.93
2019-02-27T07:36:07.653Z,59.24
2019-02-27T07:37:07.641Z,58.62
2019-02-27T07:38:07.630Z,59.11
2019-02-27T07:39:07.636Z,57.97
2019-02-27T07:40:08.625Z,58.18
2019-02-27T07:41:07.633Z,58.48
2019-02-27T07:42:07.588Z,58.46
2019-02-27T07:43:07.576Z,59.29
2019-02-27T07:44:07.565Z,58.46
2019-02-27T07:45:08.126Z,57.81
2019-02-27T07:46:07.544Z,59.26
2019-02-27T07:47:07.547Z,59.05
2019-02-27T07:48:07.522Z,57.99
2019-02-27T07:49:07.511Z,58.51
2019-02-27T07:50:08.838Z,57.48
2019-02-27T07:51:07.490Z,57.04
2019-02-27T07:52:07.479Z,57.37
2019-02-27T07:53:07.482Z,57.55
2019-02-27T07:54:07.457Z,57.55
2019-02-27T07:55:18.511Z,56.18
2019-02-27T07:56:08.440Z,56.90
2019-02-27T07:57:07.425Z,56.08
2019-02-27T07:58:07.415Z,55.46
2019-02-27T07:59:07.414Z,55.95
2019-02-27T08:00:07.392Z,56.03
2019-02-27T08:01:07.382Z,55.62
2019-02-27T08:02:07.370Z,55.20
2019-02-27T08:03:09.843Z,55.10
2019-02-27T08:04:07.372Z,55.90
2019-02-27T08:05:07.360Z,55.59
2019-02-27T08:06:07.326Z,54.94
2019-02-27T08:07:09.974Z,54.64
2019-02-27T08:08:08.306Z,54.51
2019-02-27T08:09:07.295Z,53.48
2019-02-27T08:10:07.283Z,51.62
2019-02-27T08:11:07.289Z,52.42
2019-02-27T08:12:07.261Z,52.22
2019-02-27T08:13:07.251Z,51.29
2019-02-27T08:14:07.240Z,51.09
2019-02-27T08:15:07.229Z,51.39
2019-02-27T08:16:07.219Z,51.00
2019-02-27T08:17:17.199Z,51.42
2019-02-27T08:18:08.313Z,51.60
2019-02-27T08:19:08.921Z,51.18
2019-02-27T08:20:07.178Z,51.09
2019-02-27T08:21:07.167Z,50.57
2019-02-27T08:22:07.153Z,50.78
2019-02-27T08:23:07.152Z,50.67
2019-02-27T08:24:07.660Z,49.95
2019-02-27T08:25:07.120Z,50.46
2019-02-27T08:26:07.108Z,50.16
2019-02-27T08:27:09.582Z,50.13
2019-02-27T08:28:07.089Z,51.16
2019-02-27T08:29:07.124Z,49.49
2019-02-27T08:30:07.066Z,50.11
2019-02-27T08:31:07.053Z,50.21
2019-02-27T08:32:07.044Z,49.49
2019-02-27T08:33:08.440Z,49.47
2019-02-27T08:34:07.021Z,49.18
2019-02-27T08:35:07.029Z,49.68
2019-02-27T08:36:07.008Z,50.16
2019-02-27T08:37:06.989Z,48.52
2019-02-27T08:38:06.979Z,48.32
2019-02-27T08:39:06.968Z,48.32
2019-02-27T08:40:06.957Z,48.50
2019-02-27T08:41:06.958Z,48.39
2019-02-27T08:42:06.936Z,47.66
2019-02-27T08:43:06.925Z,47.63
2019-02-27T08:44:06.915Z,46.91
2019-02-27T08:45:06.907Z,46.40
2019-02-27T08:46:06.892Z,47.74
2019-02-27T08:47:07.797Z,47.42
2019-02-27T08:48:06.871Z,47.51
2019-02-27T08:49:06.860Z,47.09
2019-02-27T08:50:06.854Z,46.89
2019-02-27T08:51:08.754Z,46.67
2019-02-27T08:52:08.421Z,46.46
2019-02-27T08:53:06.827Z,46.67
2019-02-27T08:54:06.805Z,45.54
2019-02-27T08:55:06.794Z,46.36
2019-02-27T08:56:06.783Z,46.56
2019-02-27T08:57:06.772Z,46.25
2019-02-27T08:58:07.285Z,46.56
2019-02-27T08:59:06.761Z,46.54
2019-02-27T09:00:06.740Z,47.05
2019-02-27T09:01:06.730Z,46.64
2019-02-27T09:02:06.717Z,46.34
2019-02-27T09:03:06.708Z,46.75
2019-02-27T09:04:11.465Z,45.62
2019-02-27T09:05:07.702Z,46.01
2019-02-27T09:06:06.676Z,46.31
2019-02-27T09:07:06.662Z,46.31
2019-02-27T09:08:07.361Z,46.62
2019-02-27T09:09:07.968Z,47.34
2019-02-27T09:10:06.629Z,47.52
2019-02-27T09:11:06.914Z,46.50
2019-02-27T09:12:06.607Z,46.70
2019-02-27T09:13:06.604Z,45.45
2019-02-27T09:14:06.586Z,45.25
2019-02-27T09:15:06.574Z,45.35
2019-02-27T09:16:06.563Z,46.37
2019-02-27T09:17:06.561Z,45.76
2019-02-27T09:18:06.541Z,45.15
2019-02-27T09:19:09.251Z,46.58
2019-02-27T09:20:06.518Z,46.48
2019-02-27T09:21:06.514Z,46.35
2019-02-27T09:22:06.496Z,45.33
2019-02-27T09:23:06.496Z,46.23
2019-02-27T09:24:06.475Z,46.84
2019-02-27T09:25:06.465Z,44.18
2019-02-27T09:26:06.455Z,44.18
2019-02-27T09:27:06.443Z,44.49
2019-02-27T09:28:09.205Z,45.59
2019-02-27T09:29:06.433Z,44.17
2019-02-27T09:30:06.412Z,44.88
2019-02-27T09:31:06.401Z,44.18
2019-02-27T09:32:06.390Z,44.47
2019-02-27T09:33:06.381Z,44.17
2019-02-27T09:34:06.494Z,44.45
2019-02-27T09:35:06.370Z,44.45
2019-02-27T09:36:08.014Z,45.06
2019-02-27T09:37:06.336Z,44.57
2019-02-27T09:38:06.326Z,43.96
2019-02-27T09:39:06.315Z,45.41
2019-02-27T09:40:06.311Z,45.10
2019-02-27T09:41:06.305Z,45.10
2019-02-27T09:42:06.284Z,45.51
2019-02-27T09:43:06.381Z,45.29
2019-02-27T09:44:06.265Z,45.08
2019-02-27T09:45:08.227Z,45.08
2019-02-27T09:46:06.319Z,45.18
2019-02-27T09:47:06.240Z,44.88
2019-02-27T09:48:06.220Z,44.76
2019-02-27T09:49:07.085Z,44.85
2019-02-27T09:50:06.198Z,44.55
2019-02-27T09:51:06.188Z,44.73
2019-02-27T09:52:06.176Z,43.61
2019-02-27T09:53:06.179Z,44.02
2019-02-27T09:54:08.069Z,44.73
2019-02-27T09:55:06.144Z,43.82
2019-02-27T09:56:06.133Z,43.82
2019-02-27T09:57:06.122Z,44.73
2019-02-27T09:58:10.073Z,43.91
2019-02-27T09:59:06.111Z,44.02
2019-02-27T10:00:06.090Z,44.20
2019-02-27T10:01:06.079Z,43.08
2019-02-27T10:02:08.758Z,43.82
2019-02-27T10:03:06.058Z,43.49
2019-02-27T10:04:06.052Z,42.97
2019-02-27T10:05:06.046Z,43.88
2019-02-27T10:06:08.746Z,43.08
2019-02-27T10:07:06.018Z,43.90
2019-02-27T10:08:07.485Z,44.00
2019-02-27T10:09:05.994Z,44.92
2019-02-27T10:10:10.200Z,45.10
2019-02-27T10:11:05.992Z,43.79
2019-02-27T10:12:05.961Z,43.57
2019-02-27T10:13:05.950Z,44.28
2019-02-27T10:14:05.940Z,44.67
2019-02-27T10:15:05.930Z,44.98
2019-02-27T10:16:05.920Z,43.96
2019-02-27T10:17:06.732Z,44.78
2019-02-27T10:18:05.897Z,44.69
2019-02-27T10:19:05.886Z,44.57
2019-02-27T10:20:05.876Z,43.85
2019-02-27T10:21:05.870Z,44.57
2019-02-27T10:22:05.854Z,44.46
2019-02-27T10:23:05.855Z,44.98
2019-02-27T10:24:05.836Z,45.18
2019-02-27T10:25:08.593Z,45.18
2019-02-27T10:26:05.813Z,46.20
2019-02-27T10:27:05.800Z,45.36
2019-02-27T10:28:05.790Z,45.06
2019-02-27T10:29:05.796Z,43.84
2019-02-27T10:30:11.450Z,45.24
2019-02-27T10:31:06.757Z,43.91
2019-02-27T10:32:05.749Z,44.53
2019-02-27T10:33:05.736Z,43.61
2019-02-27T10:34:05.725Z,43.29
2019-02-27T10:35:05.726Z,44.00
2019-02-27T10:36:05.704Z,43.59
2019-02-27T10:37:05.723Z,43.29
2019-02-27T10:38:05.683Z,43.69
2019-02-27T10:39:05.670Z,43.71
2019-02-27T10:40:05.659Z,42.88
2019-02-27T10:41:05.659Z,44.32
2019-02-27T10:42:05.638Z,42.57
2019-02-27T10:43:05.629Z,42.88
2019-02-27T10:44:05.617Z,42.88
2019-02-27T10:45:09.815Z,43.08
2019-02-27T10:46:05.593Z,43.90
2019-02-27T10:47:05.600Z,44.00
2019-02-27T10:48:05.572Z,43.79
2019-02-27T10:49:05.561Z,42.35
2019-02-27T10:50:05.549Z,42.57
2019-02-27T10:51:05.538Z,43.77
2019-02-27T10:52:05.539Z,43.08
2019-02-27T10:53:05.528Z,42.77
2019-02-27T10:54:05.605Z,43.16
2019-02-27T10:55:05.493Z,43.77
2019-02-27T10:56:05.487Z,42.96
2019-02-27T10:57:06.024Z,43.37
2019-02-27T10:58:07.561Z,42.45
2019-02-27T10:59:05.460Z,42.86
2019-02-27T11:00:05.439Z,42.65
2019-02-27T11:01:05.426Z,43.98
2019-02-27T11:02:05.418Z,43.96
2019-02-27T11:03:05.407Z,42.86
2019-02-27T11:04:05.395Z,42.74
2019-02-27T11:05:05.404Z,42.22
2019-02-27T11:06:05.379Z,42.83
2019-02-27T11:07:05.362Z,42.53
2019-02-27T11:08:05.353Z,43.85
2019-02-27T11:09:05.367Z,43.75
2019-02-27T11:10:05.331Z,43.85
2019-02-27T11:11:05.336Z,44.06
2019-02-27T11:12:05.313Z,44.57
2019-02-27T11:13:06.715Z,44.06
2019-02-27T11:14:05.289Z,44.85
2019-02-27T11:15:05.277Z,44.14
2019-02-27T11:16:05.266Z,43.73
2019-02-27T11:17:05.265Z,44.04
2019-02-27T11:18:05.928Z,44.45
2019-02-27T11:19:05.235Z,44.04
2019-02-27T11:20:05.229Z,44.14
2019-02-27T11:21:05.212Z,43.73
2019-02-27T11:22:05.206Z,44.42
2019-02-27T11:23:07.083Z,44.32
2019-02-27T11:24:05.180Z,43.71
2019-02-27T11:25:05.170Z,44.22
2019-02-27T11:26:05.158Z,43.41
2019-02-27T11:27:06.190Z,43.81
2019-02-27T11:28:05.141Z,43.91
2019-02-27T11:29:05.138Z,44.22
2019-02-27T11:30:05.116Z,42.80
2019-02-27T11:31:05.105Z,44.02
2019-02-27T11:32:05.096Z,42.68
2019-02-27T11:33:05.084Z,42.57
2019-02-27T11:34:07.838Z,42.57
2019-02-27T11:35:05.075Z,43.79
2019-02-27T11:36:05.667Z,44.40
2019-02-27T11:37:05.052Z,43.37
2019-02-27T11:38:05.033Z,43.67
2019-02-27T11:39:05.027Z,43.67
2019-02-27T11:40:05.416Z,42.76
2019-02-27T11:41:05.009Z,43.67
2019-02-27T11:42:04.989Z,44.48
2019-02-27T11:43:07.007Z,43.55
2019-02-27T11:44:04.968Z,43.55
2019-02-27T11:45:04.957Z,43.65
2019-02-27T11:46:04.948Z,44.16
2019-02-27T11:47:04.946Z,43.75
2019-02-27T11:48:04.925Z,43.24
2019-02-27T11:49:04.914Z,43.35
2019-02-27T11:50:04.903Z,42.94
2019-02-27T11:51:04.893Z,43.02
2019-02-27T11:52:04.882Z,42.61
2019-02-27T11:53:04.885Z,42.94
2019-02-27T11:54:04.861Z,43.23
2019-02-27T11:55:04.850Z,42.72
2019-02-27T11:56:04.843Z,44.13
2019-02-27T11:57:04.828Z,42.92
2019-02-27T11:58:05.593Z,42.92
2019-02-27T11:59:04.819Z,43.73
2019-02-27T12:00:04.799Z,43.63
2019-02-27T12:01:04.786Z,42.61
2019-02-27T12:02:04.776Z,42.41
2019-02-27T12:03:04.770Z,43.12
2019-02-27T12:04:04.754Z,43.00
2019-02-27T12:05:04.753Z,43.73
2019-02-27T12:06:05.358Z,43.84
2019-02-27T12:07:04.723Z,43.71
2019-02-27T12:08:04.711Z,43.91
2019-02-27T12:09:04.707Z,44.22
2019-02-27T12:10:06.604Z,44.01
2019-02-27T12:11:04.690Z,43.71
2019-02-27T12:12:04.670Z,42.88
2019-02-27T12:13:04.658Z,42.69
2019-02-27T12:14:06.533Z,44.12
2019-02-27T12:15:06.772Z,44.42
2019-02-27T12:16:04.626Z,44.50
2019-02-27T12:17:04.626Z,43.99
2019-02-27T12:18:04.605Z,42.57
2019-02-27T12:19:06.420Z,42.78
2019-02-27T12:20:04.586Z,42.78
2019-02-27T12:21:04.572Z,42.76
2019-02-27T12:22:04.561Z,42.05
2019-02-27T12:23:04.569Z,41.85
2019-02-27T12:24:05.451Z,42.66
2019-02-27T12:25:04.528Z,42.96
2019-02-27T12:26:04.517Z,42.46
2019-02-27T12:27:04.508Z,41.64
2019-02-27T12:28:04.506Z,42.76
2019-02-27T12:29:04.494Z,42.66
2019-02-27T12:30:04.473Z,42.94
2019-02-27T12:31:04.461Z,42.86
2019-02-27T12:32:06.117Z,42.23
2019-02-27T12:33:04.439Z,42.15
2019-02-27T12:34:04.428Z,42.74
2019-02-27T12:35:04.428Z,42.23
2019-02-27T12:36:04.407Z,42.13
2019-02-27T12:37:04.395Z,42.54
2019-02-27T12:38:07.318Z,43.65
2019-02-27T12:39:04.372Z,43.95
2019-02-27T12:40:04.361Z,41.83
2019-02-27T12:41:04.363Z,42.72
2019-02-27T12:42:06.966Z,42.82
2019-02-27T12:43:04.330Z,42.61
2019-02-27T12:44:04.317Z,42.49
2019-02-27T12:45:04.309Z,42.40
2019-02-27T12:46:04.297Z,42.09
2019-02-27T12:47:05.581Z,41.99
2019-02-27T12:48:04.278Z,41.69
2019-02-27T12:49:04.265Z,41.16
2019-02-27T12:50:04.254Z,41.26
2019-02-27T12:51:04.428Z,41.87
2019-02-27T12:52:04.232Z,40.66
2019-02-27T12:53:04.232Z,40.25
2019-02-27T12:54:04.210Z,39.84
2019-02-27T12:55:04.199Z,40.66
2019-02-27T12:56:04.191Z,41.77
2019-02-27T12:57:04.181Z,40.95
2019-02-27T12:58:04.174Z,40.35
2019-02-27T12:59:04.172Z,39.84
2019-02-27T13:00:05.771Z,40.25
2019-02-27T13:01:04.135Z,40.73
2019-02-27T13:02:08.247Z,39.93
2019-02-27T13:03:08.399Z,40.53
2019-02-27T13:04:05.116Z,39.42
2019-02-27T13:05:04.094Z,39.00
2019-02-27T13:06:04.085Z,39.91
2019-02-27T13:07:04.071Z,39.50
2019-02-27T13:08:04.060Z,39.70
2019-02-27T13:09:04.051Z,40.01
2019-02-27T13:10:04.048Z,39.61
2019-02-27T13:11:05.247Z,39.50
2019-02-27T13:12:04.016Z,40.01
2019-02-27T13:13:04.007Z,39.30
2019-02-27T13:14:03.995Z,39.30
2019-02-27T13:15:06.621Z,39.70
2019-02-27T13:16:03.984Z,40.39
2019-02-27T13:17:03.966Z,39.61
2019-02-27T13:18:03.952Z,39.28
2019-02-27T13:19:06.407Z,39.59
2019-02-27T13:20:03.932Z,39.48
2019-02-27T13:21:03.923Z,39.61